sensor_id;sensor_type;location;lat;lon;timestamp;temperature;humidity
16076;DHT22;8142;48.242;11.644;2022-10-31T00:01:37;10.40;99.90
16076;DHT22;8142;48.242;11.644;2022-10-31T00:04:04;10.40;99.90
16076;DHT22;8142;48.242;11.644;2022-10-31T00:06:30;10.40;99.90
16076;DHT22;8142;48.242;11.644;2022-10-31T00:09:01;10.30;99.90
16076;DHT22;8142;48.242;11.644;2022-10-31T00:11:27;10.40;99.90
16076;DHT22;8142;48.242;11.644;2022-10-31T00:13:54;10.40;99.90
16076;DHT22;8142;48.242;11.644;2022-10-31T00:16:23;10.30;99.90
16076;DHT22;8142;48.242;11.644;2022-10-31T00:18:54;10.30;99.90
16076;DHT22;8142;48.242;11.644;2022-10-31T00:21:20;10.30;99.90
16076;DHT22;8142;48.242;11.644;2022-10-31T00:23:46;10.30;99.90
16076;DHT22;8142;48.242;11.644;2022-10-31T00:26:12;10.30;99.90
16076;DHT22;8142;48.242;11.644;2022-10-31T00:28:38;10.30;99.90
16076;DHT22;8142;48.242;11.644;2022-10-31T00:31:06;10.30;99.90
16076;DHT22;8142;48.242;11.644;2022-10-31T00:33:34;10.30;99.90
16076;DHT22;8142;48.242;11.644;2022-10-31T00:36:00;10.30;99.90
16076;DHT22;8142;48.242;11.644;2022-10-31T00:38:26;10.30;99.90
16076;DHT22;8142;48.242;11.644;2022-10-31T00:40:52;10.30;99.90
16076;DHT22;8142;48.242;11.644;2022-10-31T00:43:18;10.30;99.90
16076;DHT22;8142;48.242;11.644;2022-10-31T00:45:44;10.30;99.90
16076;DHT22;8142;48.242;11.644;2022-10-31T00:48:10;10.30;99.90
16076;DHT22;8142;48.242;11.644;2022-10-31T00:50:36;10.30;99.90
16076;DHT22;8142;48.242;11.644;2022-10-31T00:53:02;10.30;99.90
16076;DHT22;8142;48.242;11.644;2022-10-31T00:55:28;10.30;99.90
16076;DHT22;8142;48.242;11.644;2022-10-31T00:57:54;10.30;99.90
16076;DHT22;8142;48.242;11.644;2022-10-31T01:00:20;10.20;99.90
16076;DHT22;8142;48.242;11.644;2022-10-31T01:02:46;10.30;99.90
16076;DHT22;8142;48.242;11.644;2022-10-31T01:05:12;10.30;99.90
16076;DHT22;8142;48.242;11.644;2022-10-31T01:07:39;10.30;99.90
16076;DHT22;8142;48.242;11.644;2022-10-31T01:10:05;10.30;99.90
16076;DHT22;8142;48.242;11.644;2022-10-31T01:12:40;10.30;99.90
16076;DHT22;8142;48.242;11.644;2022-10-31T01:15:07;10.30;99.90
16076;DHT22;8142;48.242;11.644;2022-10-31T01:17:33;10.20;99.90
16076;DHT22;8142;48.242;11.644;2022-10-31T01:19:59;10.20;99.90
16076;DHT22;8142;48.242;11.644;2022-10-31T01:22:25;10.20;99.90
16076;DHT22;8142;48.242;11.644;2022-10-31T01:24:51;10.20;99.90
16076;DHT22;8142;48.242;11.644;2022-10-31T01:27:17;10.20;99.90
16076;DHT22;8142;48.242;11.644;2022-10-31T01:29:43;10.20;99.90
16076;DHT22;8142;48.242;11.644;2022-10-31T01:32:08;10.10;99.90
16076;DHT22;8142;48.242;11.644;2022-10-31T01:34:34;10.10;99.90
16076;DHT22;8142;48.242;11.644;2022-10-31T01:37:00;10.10;99.90
16076;DHT22;8142;48.242;11.644;2022-10-31T01:39:26;10.10;99.90
16076;DHT22;8142;48.242;11.644;2022-10-31T01:41:53;10.10;99.90
16076;DHT22;8142;48.242;11.644;2022-10-31T01:46:50;10.10;99.90
16076;DHT22;8142;48.242;11.644;2022-10-31T01:49:33;9.90;99.90
16076;DHT22;8142;48.242;11.644;2022-10-31T01:52:04;9.80;99.90
16076;DHT22;8142;48.242;11.644;2022-10-31T01:54:39;9.70;99.90
16076;DHT22;8142;48.242;11.644;2022-10-31T01:57:08;9.40;99.90
16076;DHT22;8142;48.242;11.644;2022-10-31T01:59:40;9.40;99.90
16076;DHT22;8142;48.242;11.644;2022-10-31T02:02:08;9.30;99.90
16076;DHT22;8142;48.242;11.644;2022-10-31T02:04:35;9.30;99.90
16076;DHT22;8142;48.242;11.644;2022-10-31T02:07:05;9.40;99.90
16076;DHT22;8142;48.242;11.644;2022-10-31T02:09:31;9.50;99.90
16076;DHT22;8142;48.242;11.644;2022-10-31T02:12:00;9.50;99.90
16076;DHT22;8142;48.242;11.644;2022-10-31T02:14:28;9.50;99.90
16076;DHT22;8142;48.242;11.644;2022-10-31T02:16:54;9.50;99.90
16076;DHT22;8142;48.242;11.644;2022-10-31T02:19:55;9.50;99.90
16076;DHT22;8142;48.242;11.644;2022-10-31T02:22:26;9.50;99.90
16076;DHT22;8142;48.242;11.644;2022-10-31T02:28:45;9.60;99.90
16076;DHT22;8142;48.242;11.644;2022-10-31T02:33:58;9.60;99.90
16076;DHT22;8142;48.242;11.644;2022-10-31T02:36:45;9.60;99.90
16076;DHT22;8142;48.242;11.644;2022-10-31T02:39:22;9.60;99.90
16076;DHT22;8142;48.242;11.644;2022-10-31T02:41:57;9.60;99.90
16076;DHT22;8142;48.242;11.644;2022-10-31T02:47:08;9.60;99.90
16076;DHT22;8142;48.242;11.644;2022-10-31T02:49:53;9.50;99.90
16076;DHT22;8142;48.242;11.644;2022-10-31T02:52:25;9.50;99.90
16076;DHT22;8142;48.242;11.644;2022-10-31T02:54:52;9.50;99.90
16076;DHT22;8142;48.242;11.644;2022-10-31T02:57:24;9.50;99.90
16076;DHT22;8142;48.242;11.644;2022-10-31T02:59:54;9.50;99.90
16076;DHT22;8142;48.242;11.644;2022-10-31T03:02:40;9.50;99.90
16076;DHT22;8142;48.242;11.644;2022-10-31T03:08:24;9.50;99.90
16076;DHT22;8142;48.242;11.644;2022-10-31T03:11:03;9.60;99.90
16076;DHT22;8142;48.242;11.644;2022-10-31T03:18:40;9.70;99.90
16076;DHT22;8142;48.242;11.644;2022-10-31T03:22:22;9.50;99.90
16076;DHT22;8142;48.242;11.644;2022-10-31T03:24:18;9.60;99.90
16076;DHT22;8142;48.242;11.644;2022-10-31T03:26:49;9.50;99.90
16076;DHT22;8142;48.242;11.644;2022-10-31T03:29:20;9.50;99.90
16076;DHT22;8142;48.242;11.644;2022-10-31T03:31:59;9.60;99.90
16076;DHT22;8142;48.242;11.644;2022-10-31T03:34:28;9.50;99.90
16076;DHT22;8142;48.242;11.644;2022-10-31T03:36:56;9.60;99.90
16076;DHT22;8142;48.242;11.644;2022-10-31T03:39:23;9.50;99.90
16076;DHT22;8142;48.242;11.644;2022-10-31T03:41:58;9.50;99.90
16076;DHT22;8142;48.242;11.644;2022-10-31T03:44:27;9.50;99.90
16076;DHT22;8142;48.242;11.644;2022-10-31T03:46:54;9.60;99.90
16076;DHT22;8142;48.242;11.644;2022-10-31T03:49:21;9.50;99.90
16076;DHT22;8142;48.242;11.644;2022-10-31T03:51:54;9.50;99.90
16076;DHT22;8142;48.242;11.644;2022-10-31T03:54:33;9.40;99.90
16076;DHT22;8142;48.242;11.644;2022-10-31T03:59:34;9.40;99.90
16076;DHT22;8142;48.242;11.644;2022-10-31T04:02:11;9.40;99.90
16076;DHT22;8142;48.242;11.644;2022-10-31T04:04:38;9.30;99.90
16076;DHT22;8142;48.242;11.644;2022-10-31T04:07:06;9.10;99.90
16076;DHT22;8142;48.242;11.644;2022-10-31T04:09:35;9.00;99.90
16076;DHT22;8142;48.242;11.644;2022-10-31T04:12:04;8.80;99.90
16076;DHT22;8142;48.242;11.644;2022-10-31T04:14:32;8.60;99.90
16076;DHT22;8142;48.242;11.644;2022-10-31T04:17:00;8.50;99.90
16076;DHT22;8142;48.242;11.644;2022-10-31T04:19:27;8.30;99.90
16076;DHT22;8142;48.242;11.644;2022-10-31T04:21:53;8.20;99.90
16076;DHT22;8142;48.242;11.644;2022-10-31T04:24:18;8.00;99.90
16076;DHT22;8142;48.242;11.644;2022-10-31T04:26:44;8.00;99.90
16076;DHT22;8142;48.242;11.644;2022-10-31T04:29:10;7.80;99.90
16076;DHT22;8142;48.242;11.644;2022-10-31T04:31:36;7.80;99.90
16076;DHT22;8142;48.242;11.644;2022-10-31T04:34:02;7.70;99.90
16076;DHT22;8142;48.242;11.644;2022-10-31T04:36:27;7.60;99.90
16076;DHT22;8142;48.242;11.644;2022-10-31T04:38:53;7.50;99.90
16076;DHT22;8142;48.242;11.644;2022-10-31T04:41:19;7.50;99.90
16076;DHT22;8142;48.242;11.644;2022-10-31T04:43:45;7.40;99.90
16076;DHT22;8142;48.242;11.644;2022-10-31T04:46:11;7.40;99.90
16076;DHT22;8142;48.242;11.644;2022-10-31T04:48:37;7.40;99.90
16076;DHT22;8142;48.242;11.644;2022-10-31T04:51:03;7.40;99.90
16076;DHT22;8142;48.242;11.644;2022-10-31T04:53:29;7.40;99.90
16076;DHT22;8142;48.242;11.644;2022-10-31T04:55:55;7.40;99.90
16076;DHT22;8142;48.242;11.644;2022-10-31T04:58:23;7.50;99.90
16076;DHT22;8142;48.242;11.644;2022-10-31T05:00:52;7.50;99.90
16076;DHT22;8142;48.242;11.644;2022-10-31T05:03:18;7.60;99.90
16076;DHT22;8142;48.242;11.644;2022-10-31T05:05:43;7.70;99.90
16076;DHT22;8142;48.242;11.644;2022-10-31T05:08:09;7.90;99.90
16076;DHT22;8142;48.242;11.644;2022-10-31T05:10:36;7.90;99.90
16076;DHT22;8142;48.242;11.644;2022-10-31T05:13:03;8.00;99.90
16076;DHT22;8142;48.242;11.644;2022-10-31T05:15:29;7.90;99.90
16076;DHT22;8142;48.242;11.644;2022-10-31T05:17:56;8.10;99.90
16076;DHT22;8142;48.242;11.644;2022-10-31T05:20:26;8.10;99.90
16076;DHT22;8142;48.242;11.644;2022-10-31T05:22:53;8.20;99.90
16076;DHT22;8142;48.242;11.644;2022-10-31T05:25:21;8.20;99.90
16076;DHT22;8142;48.242;11.644;2022-10-31T05:27:49;8.20;99.90
16076;DHT22;8142;48.242;11.644;2022-10-31T05:30:18;8.20;99.90
16076;DHT22;8142;48.242;11.644;2022-10-31T05:32:46;8.20;99.90
16076;DHT22;8142;48.242;11.644;2022-10-31T05:35:17;8.30;99.90
16076;DHT22;8142;48.242;11.644;2022-10-31T05:37:43;8.30;99.90
16076;DHT22;8142;48.242;11.644;2022-10-31T05:40:11;8.40;99.90
16076;DHT22;8142;48.242;11.644;2022-10-31T05:42:39;8.30;99.90
16076;DHT22;8142;48.242;11.644;2022-10-31T05:45:07;8.40;99.90
16076;DHT22;8142;48.242;11.644;2022-10-31T05:47:33;8.40;99.90
16076;DHT22;8142;48.242;11.644;2022-10-31T05:49:59;8.40;99.90
16076;DHT22;8142;48.242;11.644;2022-10-31T05:52:25;8.40;99.90
16076;DHT22;8142;48.242;11.644;2022-10-31T05:54:50;8.40;99.90
16076;DHT22;8142;48.242;11.644;2022-10-31T05:57:16;8.30;99.90
16076;DHT22;8142;48.242;11.644;2022-10-31T05:59:42;8.50;99.90
16076;DHT22;8142;48.242;11.644;2022-10-31T06:02:08;8.50;99.90
16076;DHT22;8142;48.242;11.644;2022-10-31T06:04:34;8.50;99.90
16076;DHT22;8142;48.242;11.644;2022-10-31T06:07:00;8.40;99.90
16076;DHT22;8142;48.242;11.644;2022-10-31T06:09:25;8.50;99.90
16076;DHT22;8142;48.242;11.644;2022-10-31T06:11:51;8.50;99.90
16076;DHT22;8142;48.242;11.644;2022-10-31T06:14:17;8.40;99.90
16076;DHT22;8142;48.242;11.644;2022-10-31T06:16:43;8.40;99.90
16076;DHT22;8142;48.242;11.644;2022-10-31T06:19:09;8.40;99.90
16076;DHT22;8142;48.242;11.644;2022-10-31T06:21:35;8.40;99.90
16076;DHT22;8142;48.242;11.644;2022-10-31T06:24:00;8.40;99.90
16076;DHT22;8142;48.242;11.644;2022-10-31T06:26:26;8.30;99.90
16076;DHT22;8142;48.242;11.644;2022-10-31T06:28:52;8.30;99.90
16076;DHT22;8142;48.242;11.644;2022-10-31T06:31:18;8.30;99.90
16076;DHT22;8142;48.242;11.644;2022-10-31T06:33:44;8.30;99.90
16076;DHT22;8142;48.242;11.644;2022-10-31T06:36:10;8.30;99.90
16076;DHT22;8142;48.242;11.644;2022-10-31T06:38:36;8.30;99.90
16076;DHT22;8142;48.242;11.644;2022-10-31T06:41:03;8.30;99.90
16076;DHT22;8142;48.242;11.644;2022-10-31T06:43:29;8.30;99.90
16076;DHT22;8142;48.242;11.644;2022-10-31T06:45:55;8.30;99.90
16076;DHT22;8142;48.242;11.644;2022-10-31T06:48:21;8.40;99.90
16076;DHT22;8142;48.242;11.644;2022-10-31T06:50:47;8.50;99.90
16076;DHT22;8142;48.242;11.644;2022-10-31T06:53:13;8.40;99.90
16076;DHT22;8142;48.242;11.644;2022-10-31T06:55:42;8.50;99.90
16076;DHT22;8142;48.242;11.644;2022-10-31T06:58:09;8.40;99.90
16076;DHT22;8142;48.242;11.644;2022-10-31T07:00:36;8.40;99.90
16076;DHT22;8142;48.242;11.644;2022-10-31T07:03:08;8.50;99.90
16076;DHT22;8142;48.242;11.644;2022-10-31T07:05:34;8.40;99.90
16076;DHT22;8142;48.242;11.644;2022-10-31T07:08:03;8.40;99.90
16076;DHT22;8142;48.242;11.644;2022-10-31T07:10:31;8.40;99.90
16076;DHT22;8142;48.242;11.644;2022-10-31T07:13:00;8.50;99.90
16076;DHT22;8142;48.242;11.644;2022-10-31T07:15:29;8.50;99.90
16076;DHT22;8142;48.242;11.644;2022-10-31T07:18:03;8.60;99.90
16076;DHT22;8142;48.242;11.644;2022-10-31T07:20:29;8.70;99.90
16076;DHT22;8142;48.242;11.644;2022-10-31T07:22:55;8.80;99.90
16076;DHT22;8142;48.242;11.644;2022-10-31T07:25:22;8.90;99.90
16076;DHT22;8142;48.242;11.644;2022-10-31T07:27:48;9.00;99.90
16076;DHT22;8142;48.242;11.644;2022-10-31T07:30:14;9.10;99.90
16076;DHT22;8142;48.242;11.644;2022-10-31T07:32:43;9.30;99.90
16076;DHT22;8142;48.242;11.644;2022-10-31T07:35:11;9.40;99.90
16076;DHT22;8142;48.242;11.644;2022-10-31T07:37:38;9.60;99.90
16076;DHT22;8142;48.242;11.644;2022-10-31T07:40:05;9.70;99.90
16076;DHT22;8142;48.242;11.644;2022-10-31T07:42:40;9.90;99.90
16076;DHT22;8142;48.242;11.644;2022-10-31T07:45:08;10.00;99.90
16076;DHT22;8142;48.242;11.644;2022-10-31T07:48:01;10.20;99.90
16076;DHT22;8142;48.242;11.644;2022-10-31T07:50:31;10.30;99.90
16076;DHT22;8142;48.242;11.644;2022-10-31T07:53:20;10.40;99.90
16076;DHT22;8142;48.242;11.644;2022-10-31T07:55:50;10.50;99.90
16076;DHT22;8142;48.242;11.644;2022-10-31T07:58:17;10.60;99.90
16076;DHT22;8142;48.242;11.644;2022-10-31T08:00:44;10.70;99.90
16076;DHT22;8142;48.242;11.644;2022-10-31T08:03:12;10.70;99.90
16076;DHT22;8142;48.242;11.644;2022-10-31T08:05:39;10.80;99.90
16076;DHT22;8142;48.242;11.644;2022-10-31T08:08:07;10.90;99.90
16076;DHT22;8142;48.242;11.644;2022-10-31T08:10:33;11.00;99.90
16076;DHT22;8142;48.242;11.644;2022-10-31T08:13:11;11.10;99.90
16076;DHT22;8142;48.242;11.644;2022-10-31T08:15:37;11.20;99.90
16076;DHT22;8142;48.242;11.644;2022-10-31T08:18:06;11.20;99.90
16076;DHT22;8142;48.242;11.644;2022-10-31T08:20:32;11.20;99.90
16076;DHT22;8142;48.242;11.644;2022-10-31T08:23:00;11.30;99.90
16076;DHT22;8142;48.242;11.644;2022-10-31T08:25:28;11.40;99.90
16076;DHT22;8142;48.242;11.644;2022-10-31T08:27:55;11.50;99.90
16076;DHT22;8142;48.242;11.644;2022-10-31T08:30:23;11.50;99.90
16076;DHT22;8142;48.242;11.644;2022-10-31T08:33:08;11.60;99.90
16076;DHT22;8142;48.242;11.644;2022-10-31T08:35:34;11.60;99.90
16076;DHT22;8142;48.242;11.644;2022-10-31T08:38:01;11.70;99.90
16076;DHT22;8142;48.242;11.644;2022-10-31T08:40:28;11.80;99.90
16076;DHT22;8142;48.242;11.644;2022-10-31T08:42:59;11.80;99.90
16076;DHT22;8142;48.242;11.644;2022-10-31T08:45:26;11.90;99.90
16076;DHT22;8142;48.242;11.644;2022-10-31T08:47:55;12.00;99.90
16076;DHT22;8142;48.242;11.644;2022-10-31T08:50:21;12.00;99.90
16076;DHT22;8142;48.242;11.644;2022-10-31T08:52:47;12.10;99.90
16076;DHT22;8142;48.242;11.644;2022-10-31T08:55:13;12.20;99.90
16076;DHT22;8142;48.242;11.644;2022-10-31T08:57:39;12.20;99.90
16076;DHT22;8142;48.242;11.644;2022-10-31T09:00:05;12.20;99.90
16076;DHT22;8142;48.242;11.644;2022-10-31T09:02:32;12.30;99.90
16076;DHT22;8142;48.242;11.644;2022-10-31T09:04:58;12.40;99.90
16076;DHT22;8142;48.242;11.644;2022-10-31T09:07:23;12.40;99.90
16076;DHT22;8142;48.242;11.644;2022-10-31T09:09:49;12.50;99.90
16076;DHT22;8142;48.242;11.644;2022-10-31T09:12:15;12.60;99.90
16076;DHT22;8142;48.242;11.644;2022-10-31T09:14:41;12.60;99.90
16076;DHT22;8142;48.242;11.644;2022-10-31T09:17:07;12.70;99.90
16076;DHT22;8142;48.242;11.644;2022-10-31T09:19:32;12.80;99.90
16076;DHT22;8142;48.242;11.644;2022-10-31T09:21:58;12.90;99.90
16076;DHT22;8142;48.242;11.644;2022-10-31T09:24:24;12.90;99.90
16076;DHT22;8142;48.242;11.644;2022-10-31T09:29:41;13.00;99.90
16076;DHT22;8142;48.242;11.644;2022-10-31T09:32:07;13.10;99.90
16076;DHT22;8142;48.242;11.644;2022-10-31T09:34:33;13.20;99.90
16076;DHT22;8142;48.242;11.644;2022-10-31T09:36:58;13.30;99.90
16076;DHT22;8142;48.242;11.644;2022-10-31T09:39:24;13.40;99.90
16076;DHT22;8142;48.242;11.644;2022-10-31T09:50:11;13.70;99.90
16076;DHT22;8142;48.242;11.644;2022-10-31T09:52:43;13.80;99.90
16076;DHT22;8142;48.242;11.644;2022-10-31T09:55:26;13.80;99.90
16076;DHT22;8142;48.242;11.644;2022-10-31T09:57:53;13.90;99.90
16076;DHT22;8142;48.242;11.644;2022-10-31T10:00:21;14.00;99.90
16076;DHT22;8142;48.242;11.644;2022-10-31T10:03:11;14.10;99.90
16076;DHT22;8142;48.242;11.644;2022-10-31T10:06:02;14.10;99.90
16076;DHT22;8142;48.242;11.644;2022-10-31T10:08:32;14.20;99.90
16076;DHT22;8142;48.242;11.644;2022-10-31T10:32:59;14.60;99.90
16076;DHT22;8142;48.242;11.644;2022-10-31T10:35:34;14.70;99.90
16076;DHT22;8142;48.242;11.644;2022-10-31T10:40:59;14.80;99.90
16076;DHT22;8142;48.242;11.644;2022-10-31T10:43:34;14.90;99.90
16076;DHT22;8142;48.242;11.644;2022-10-31T10:56:51;15.10;99.90
16076;DHT22;8142;48.242;11.644;2022-10-31T10:59:21;15.20;99.90
16076;DHT22;8142;48.242;11.644;2022-10-31T11:01:51;15.30;99.90
16076;DHT22;8142;48.242;11.644;2022-10-31T11:04:35;15.40;99.90
16076;DHT22;8142;48.242;11.644;2022-10-31T11:07:06;15.40;99.90
16076;DHT22;8142;48.242;11.644;2022-10-31T11:09:33;15.40;99.90
16076;DHT22;8142;48.242;11.644;2022-10-31T11:12:00;15.50;99.90
16076;DHT22;8142;48.242;11.644;2022-10-31T11:14:33;15.50;99.90
16076;DHT22;8142;48.242;11.644;2022-10-31T11:17:11;15.60;99.90
16076;DHT22;8142;48.242;11.644;2022-10-31T11:19:42;15.60;99.90
16076;DHT22;8142;48.242;11.644;2022-10-31T11:22:15;15.70;99.90
16076;DHT22;8142;48.242;11.644;2022-10-31T11:24:42;15.70;99.90
16076;DHT22;8142;48.242;11.644;2022-10-31T11:27:21;15.80;99.90
16076;DHT22;8142;48.242;11.644;2022-10-31T11:29:49;15.90;99.90
16076;DHT22;8142;48.242;11.644;2022-10-31T11:32:26;15.90;99.90
16076;DHT22;8142;48.242;11.644;2022-10-31T11:34:59;15.90;99.90
16076;DHT22;8142;48.242;11.644;2022-10-31T11:37:28;16.00;99.90
16076;DHT22;8142;48.242;11.644;2022-10-31T11:40:00;16.00;99.90
16076;DHT22;8142;48.242;11.644;2022-10-31T11:42:30;16.10;99.90
16076;DHT22;8142;48.242;11.644;2022-10-31T11:45:05;16.10;99.90
16076;DHT22;8142;48.242;11.644;2022-10-31T11:47:33;16.10;99.90
16076;DHT22;8142;48.242;11.644;2022-10-31T11:50:02;16.20;99.90
16076;DHT22;8142;48.242;11.644;2022-10-31T11:52:37;16.10;99.90
16076;DHT22;8142;48.242;11.644;2022-10-31T11:55:15;16.10;99.90
16076;DHT22;8142;48.242;11.644;2022-10-31T11:57:50;16.10;99.90
16076;DHT22;8142;48.242;11.644;2022-10-31T12:00:27;16.10;99.90
16076;DHT22;8142;48.242;11.644;2022-10-31T12:06:07;16.10;99.90
16076;DHT22;8142;48.242;11.644;2022-10-31T12:08:36;16.20;99.90
16076;DHT22;8142;48.242;11.644;2022-10-31T12:25:25;16.50;99.90
16076;DHT22;8142;48.242;11.644;2022-10-31T12:28:22;16.50;99.90
16076;DHT22;8142;48.242;11.644;2022-10-31T12:34:00;16.50;99.90
16076;DHT22;8142;48.242;11.644;2022-10-31T12:39:43;16.60;99.90
16076;DHT22;8142;48.242;11.644;2022-10-31T12:47:53;16.60;99.90
16076;DHT22;8142;48.242;11.644;2022-10-31T12:50:50;16.60;99.90
16076;DHT22;8142;48.242;11.644;2022-10-31T12:53:40;16.60;99.90
16076;DHT22;8142;48.242;11.644;2022-10-31T12:58:52;16.70;99.90
16076;DHT22;8142;48.242;11.644;2022-10-31T13:01:30;16.70;99.90
16076;DHT22;8142;48.242;11.644;2022-10-31T13:04:09;16.70;99.90
16076;DHT22;8142;48.242;11.644;2022-10-31T13:06:41;16.70;99.90
16076;DHT22;8142;48.242;11.644;2022-10-31T13:09:13;16.70;99.90
16076;DHT22;8142;48.242;11.644;2022-10-31T13:11:51;16.70;99.90
16076;DHT22;8142;48.242;11.644;2022-10-31T13:16:48;16.80;99.90
16076;DHT22;8142;48.242;11.644;2022-10-31T13:19:38;16.80;99.90
16076;DHT22;8142;48.242;11.644;2022-10-31T13:22:22;16.80;99.90
16076;DHT22;8142;48.242;11.644;2022-10-31T13:25:16;16.80;99.90
16076;DHT22;8142;48.242;11.644;2022-10-31T13:27:57;16.90;99.90
16076;DHT22;8142;48.242;11.644;2022-10-31T13:30:29;16.90;99.90
16076;DHT22;8142;48.242;11.644;2022-10-31T13:38:53;16.90;99.90
16076;DHT22;8142;48.242;11.644;2022-10-31T13:44:24;16.90;99.90
16076;DHT22;8142;48.242;11.644;2022-10-31T13:46:52;17.00;99.90
16076;DHT22;8142;48.242;11.644;2022-10-31T13:49:39;17.00;99.90
16076;DHT22;8142;48.242;11.644;2022-10-31T13:52:12;17.00;99.90
16076;DHT22;8142;48.242;11.644;2022-10-31T13:54:47;17.00;99.90
16076;DHT22;8142;48.242;11.644;2022-10-31T13:57:21;17.00;99.90
16076;DHT22;8142;48.242;11.644;2022-10-31T13:59:52;17.00;99.90
16076;DHT22;8142;48.242;11.644;2022-10-31T14:02:27;17.00;99.90
16076;DHT22;8142;48.242;11.644;2022-10-31T14:04:58;16.90;99.90
16076;DHT22;8142;48.242;11.644;2022-10-31T14:07:26;16.90;99.90
16076;DHT22;8142;48.242;11.644;2022-10-31T14:10:06;16.90;99.90
16076;DHT22;8142;48.242;11.644;2022-10-31T14:12:40;16.80;99.90
16076;DHT22;8142;48.242;11.644;2022-10-31T14:15:21;16.80;99.90
16076;DHT22;8142;48.242;11.644;2022-10-31T14:17:55;16.80;99.90
16076;DHT22;8142;48.242;11.644;2022-10-31T14:22:48;16.70;99.90
16076;DHT22;8142;48.242;11.644;2022-10-31T14:25:26;16.60;99.90
16076;DHT22;8142;48.242;11.644;2022-10-31T14:27:52;16.70;99.90
16076;DHT22;8142;48.242;11.644;2022-10-31T14:30:21;16.70;99.90
16076;DHT22;8142;48.242;11.644;2022-10-31T14:32:55;16.70;99.90
16076;DHT22;8142;48.242;11.644;2022-10-31T14:35:28;16.60;99.90
16076;DHT22;8142;48.242;11.644;2022-10-31T14:49:22;16.60;99.90
16076;DHT22;8142;48.242;11.644;2022-10-31T14:51:51;16.50;99.90
16076;DHT22;8142;48.242;11.644;2022-10-31T14:54:45;16.50;99.90
16076;DHT22;8142;48.242;11.644;2022-10-31T14:57:22;16.50;99.90
16076;DHT22;8142;48.242;11.644;2022-10-31T14:59:53;16.40;99.90
16076;DHT22;8142;48.242;11.644;2022-10-31T15:05:14;16.40;99.90
16076;DHT22;8142;48.242;11.644;2022-10-31T15:08:01;16.40;99.90
16076;DHT22;8142;48.242;11.644;2022-10-31T15:10:30;16.30;99.90
16076;DHT22;8142;48.242;11.644;2022-10-31T15:13:15;16.30;99.90
16076;DHT22;8142;48.242;11.644;2022-10-31T15:15:42;16.30;99.90
16076;DHT22;8142;48.242;11.644;2022-10-31T15:18:17;16.20;99.90
16076;DHT22;8142;48.242;11.644;2022-10-31T15:20:45;16.20;99.90
16076;DHT22;8142;48.242;11.644;2022-10-31T15:23:20;16.20;99.90
16076;DHT22;8142;48.242;11.644;2022-10-31T15:25:46;16.20;99.90
16076;DHT22;8142;48.242;11.644;2022-10-31T15:28:23;16.20;99.90
16076;DHT22;8142;48.242;11.644;2022-10-31T15:30:51;16.20;99.90
16076;DHT22;8142;48.242;11.644;2022-10-31T15:33:23;16.20;99.90
16076;DHT22;8142;48.242;11.644;2022-10-31T15:36:00;16.20;99.90
16076;DHT22;8142;48.242;11.644;2022-10-31T15:38:28;16.10;99.90
16076;DHT22;8142;48.242;11.644;2022-10-31T15:41:01;16.10;99.90
16076;DHT22;8142;48.242;11.644;2022-10-31T15:43:33;16.10;99.90
16076;DHT22;8142;48.242;11.644;2022-10-31T15:46:00;16.10;99.90
16076;DHT22;8142;48.242;11.644;2022-10-31T15:48:27;16.00;99.90
16076;DHT22;8142;48.242;11.644;2022-10-31T15:50:55;16.00;99.90
16076;DHT22;8142;48.242;11.644;2022-10-31T15:53:49;16.00;99.90
16076;DHT22;8142;48.242;11.644;2022-10-31T15:56:35;16.00;99.90
16076;DHT22;8142;48.242;11.644;2022-10-31T15:59:02;15.90;99.90
16076;DHT22;8142;48.242;11.644;2022-10-31T16:01:32;15.90;99.90
16076;DHT22;8142;48.242;11.644;2022-10-31T16:04:05;15.80;99.90
16076;DHT22;8142;48.242;11.644;2022-10-31T16:06:40;15.70;99.90
16076;DHT22;8142;48.242;11.644;2022-10-31T16:09:21;15.50;99.90
16076;DHT22;8142;48.242;11.644;2022-10-31T16:11:47;15.40;99.90
16076;DHT22;8142;48.242;11.644;2022-10-31T16:14:19;15.30;99.90
16076;DHT22;8142;48.242;11.644;2022-10-31T16:16:52;15.10;99.90
16076;DHT22;8142;48.242;11.644;2022-10-31T16:19:22;15.00;99.90
16076;DHT22;8142;48.242;11.644;2022-10-31T16:21:54;14.90;99.90
16076;DHT22;8142;48.242;11.644;2022-10-31T16:24:26;14.70;99.90
16076;DHT22;8142;48.242;11.644;2022-10-31T16:27:03;14.60;99.90
16076;DHT22;8142;48.242;11.644;2022-10-31T16:29:46;14.50;99.90
16076;DHT22;8142;48.242;11.644;2022-10-31T16:32:35;14.40;99.90
16076;DHT22;8142;48.242;11.644;2022-10-31T16:37:53;14.40;99.90
16076;DHT22;8142;48.242;11.644;2022-10-31T16:40:20;14.30;99.90
16076;DHT22;8142;48.242;11.644;2022-10-31T16:42:46;14.40;99.90
16076;DHT22;8142;48.242;11.644;2022-10-31T16:45:26;14.30;99.90
16076;DHT22;8142;48.242;11.644;2022-10-31T16:47:52;14.30;99.90
16076;DHT22;8142;48.242;11.644;2022-10-31T16:50:23;14.20;99.90
16076;DHT22;8142;48.242;11.644;2022-10-31T16:52:50;14.20;99.90
16076;DHT22;8142;48.242;11.644;2022-10-31T16:55:18;14.20;99.90
16076;DHT22;8142;48.242;11.644;2022-10-31T16:57:55;14.20;99.90
16076;DHT22;8142;48.242;11.644;2022-10-31T17:00:23;14.20;99.90
16076;DHT22;8142;48.242;11.644;2022-10-31T17:02:51;14.10;99.90
16076;DHT22;8142;48.242;11.644;2022-10-31T17:05:19;14.10;99.90
16076;DHT22;8142;48.242;11.644;2022-10-31T17:07:46;14.10;99.90
16076;DHT22;8142;48.242;11.644;2022-10-31T17:10:14;14.00;99.90
16076;DHT22;8142;48.242;11.644;2022-10-31T17:12:46;14.00;99.90
16076;DHT22;8142;48.242;11.644;2022-10-31T17:15:21;14.00;99.90
16076;DHT22;8142;48.242;11.644;2022-10-31T17:17:48;13.90;99.90
16076;DHT22;8142;48.242;11.644;2022-10-31T17:20:25;13.90;99.90
16076;DHT22;8142;48.242;11.644;2022-10-31T17:22:51;13.90;99.90
16076;DHT22;8142;48.242;11.644;2022-10-31T17:25:20;13.80;99.90
16076;DHT22;8142;48.242;11.644;2022-10-31T17:27:48;13.70;99.90
16076;DHT22;8142;48.242;11.644;2022-10-31T17:30:14;13.70;99.90
16076;DHT22;8142;48.242;11.644;2022-10-31T17:32:41;13.70;99.90
16076;DHT22;8142;48.242;11.644;2022-10-31T17:35:08;13.60;99.90
16076;DHT22;8142;48.242;11.644;2022-10-31T17:37:34;13.60;99.90
16076;DHT22;8142;48.242;11.644;2022-10-31T17:40:01;13.50;99.90
16076;DHT22;8142;48.242;11.644;2022-10-31T17:42:26;13.50;99.90
16076;DHT22;8142;48.242;11.644;2022-10-31T17:44:53;13.40;99.90
16076;DHT22;8142;48.242;11.644;2022-10-31T17:47:19;13.40;99.90
16076;DHT22;8142;48.242;11.644;2022-10-31T17:49:45;13.40;99.90
16076;DHT22;8142;48.242;11.644;2022-10-31T17:52:11;13.30;99.90
16076;DHT22;8142;48.242;11.644;2022-10-31T17:54:37;13.30;99.90
16076;DHT22;8142;48.242;11.644;2022-10-31T17:57:03;13.20;99.90
16076;DHT22;8142;48.242;11.644;2022-10-31T17:59:29;13.10;99.90
16076;DHT22;8142;48.242;11.644;2022-10-31T18:01:56;13.10;99.90
16076;DHT22;8142;48.242;11.644;2022-10-31T18:04:22;13.00;99.90
16076;DHT22;8142;48.242;11.644;2022-10-31T18:06:48;12.90;99.90